sensor_id;sensor_type;location;lat;lon;timestamp;P1;durP1;ratioP1;P2;durP2;ratioP2
42972;SDS011;28610;51.214;6.962;2023-07-20T00:01:58;1.35;;;1.35;;
42972;SDS011;28610;51.214;6.962;2023-07-20T00:04:43;1.10;;;1.10;;
42972;SDS011;28610;51.214;6.962;2023-07-20T00:07:30;1.20;;;1.20;;
42972;SDS011;28610;51.214;6.962;2023-07-20T00:10:16;1.30;;;1.30;;
42972;SDS011;28610;51.214;6.962;2023-07-20T00:13:01;1.30;;;1.30;;
42972;SDS011;28610;51.214;6.962;2023-07-20T00:15:47;1.10;;;1.10;;
42972;SDS011;28610;51.214;6.962;2023-07-20T00:18:33;1.40;;;1.40;;
42972;SDS011;28610;51.214;6.962;2023-07-20T00:21:19;1.20;;;1.20;;
42972;SDS011;28610;51.214;6.962;2023-07-20T00:24:06;1.20;;;1.20;;
42972;SDS011;28610;51.214;6.962;2023-07-20T00:26:52;2.00;;;1.90;;
42972;SDS011;28610;51.214;6.962;2023-07-20T00:29:37;1.30;;;1.30;;
42972;SDS011;28610;51.214;6.962;2023-07-20T00:32:23;1.10;;;1.10;;
42972;SDS011;28610;51.214;6.962;2023-07-20T00:35:09;2.00;;;1.90;;
42972;SDS011;28610;51.214;6.962;2023-07-20T00:37:55;1.17;;;1.17;;
42972;SDS011;28610;51.214;6.962;2023-07-20T00:40:41;1.30;;;1.30;;
42972;SDS011;28610;51.214;6.962;2023-07-20T00:43:27;2.15;;;1.95;;
42972;SDS011;28610;51.214;6.962;2023-07-20T00:46:13;1.60;;;1.60;;
42972;SDS011;28610;51.214;6.962;2023-07-20T00:48:59;1.50;;;1.40;;
42972;SDS011;28610;51.214;6.962;2023-07-20T00:51:44;1.42;;;1.42;;
42972;SDS011;28610;51.214;6.962;2023-07-20T00:54:30;1.20;;;1.20;;
42972;SDS011;28610;51.214;6.962;2023-07-20T00:57:18;1.42;;;1.42;;
42972;SDS011;28610;51.214;6.962;2023-07-20T01:00:05;1.30;;;1.30;;
42972;SDS011;28610;51.214;6.962;2023-07-20T01:02:51;1.40;;;1.40;;
42972;SDS011;28610;51.214;6.962;2023-07-20T01:05:48;2.15;;;2.05;;
42972;SDS011;28610;51.214;6.962;2023-07-20T01:08:37;1.58;;;1.48;;
42972;SDS011;28610;51.214;6.962;2023-07-20T01:11:28;1.83;;;1.75;;
42972;SDS011;28610;51.214;6.962;2023-07-20T01:14:18;1.67;;;1.40;;
42972;SDS011;28610;51.214;6.962;2023-07-20T01:17:04;1.48;;;1.48;;
42972;SDS011;28610;51.214;6.962;2023-07-20T01:19:49;1.42;;;1.42;;
42972;SDS011;28610;51.214;6.962;2023-07-20T01:22:45;1.40;;;1.40;;
42972;SDS011;28610;51.214;6.962;2023-07-20T01:25:34;1.20;;;1.20;;
42972;SDS011;28610;51.214;6.962;2023-07-20T01:28:31;1.40;;;1.40;;
42972;SDS011;28610;51.214;6.962;2023-07-20T01:31:22;1.30;;;1.30;;
42972;SDS011;28610;51.214;6.962;2023-07-20T01:34:09;1.25;;;1.25;;
42972;SDS011;28610;51.214;6.962;2023-07-20T01:36:58;1.20;;;1.20;;
42972;SDS011;28610;51.214;6.962;2023-07-20T01:39:44;1.92;;;1.83;;
42972;SDS011;28610;51.214;6.962;2023-07-20T01:42:30;1.50;;;1.50;;
42972;SDS011;28610;51.214;6.962;2023-07-20T01:45:16;1.40;;;1.40;;
42972;SDS011;28610;51.214;6.962;2023-07-20T01:48:03;1.80;;;1.70;;
42972;SDS011;28610;51.214;6.962;2023-07-20T01:50:48;1.20;;;1.20;;
42972;SDS011;28610;51.214;6.962;2023-07-20T01:53:34;1.35;;;1.35;;
42972;SDS011;28610;51.214;6.962;2023-07-20T01:56:20;1.40;;;1.40;;
42972;SDS011;28610;51.214;6.962;2023-07-20T01:59:06;1.50;;;1.48;;
42972;SDS011;28610;51.214;6.962;2023-07-20T02:01:52;1.45;;;1.45;;
42972;SDS011;28610;51.214;6.962;2023-07-20T02:04:39;1.30;;;1.30;;
42972;SDS011;28610;51.214;6.962;2023-07-20T02:07:24;1.40;;;1.40;;
42972;SDS011;28610;51.214;6.962;2023-07-20T02:10:10;1.38;;;1.38;;
42972;SDS011;28610;51.214;6.962;2023-07-20T02:12:55;3.13;;;2.08;;
42972;SDS011;28610;51.214;6.962;2023-07-20T02:15:41;2.30;;;2.15;;
42972;SDS011;28610;51.214;6.962;2023-07-20T02:18:27;1.30;;;1.30;;
42972;SDS011;28610;51.214;6.962;2023-07-20T02:21:15;1.73;;;1.63;;
42972;SDS011;28610;51.214;6.962;2023-07-20T02:24:01;1.30;;;1.30;;
42972;SDS011;28610;51.214;6.962;2023-07-20T02:26:47;1.50;;;1.50;;
42972;SDS011;28610;51.214;6.962;2023-07-20T02:29:33;1.30;;;1.30;;
42972;SDS011;28610;51.214;6.962;2023-07-20T02:32:19;1.40;;;1.40;;
42972;SDS011;28610;51.214;6.962;2023-07-20T02:35:05;2.20;;;1.98;;
42972;SDS011;28610;51.214;6.962;2023-07-20T02:37:52;1.65;;;1.65;;
42972;SDS011;28610;51.214;6.962;2023-07-20T02:40:38;1.58;;;1.48;;
42972;SDS011;28610;51.214;6.962;2023-07-20T02:43:23;1.33;;;1.33;;
42972;SDS011;28610;51.214;6.962;2023-07-20T02:46:09;1.50;;;1.50;;
42972;SDS011;28610;51.214;6.962;2023-07-20T02:48:55;1.75;;;1.75;;
42972;SDS011;28610;51.214;6.962;2023-07-20T02:51:41;1.50;;;1.45;;
42972;SDS011;28610;51.214;6.962;2023-07-20T02:54:29;1.40;;;1.40;;
42972;SDS011;28610;51.214;6.962;2023-07-20T02:57:15;1.40;;;1.40;;
42972;SDS011;28610;51.214;6.962;2023-07-20T03:00:01;1.67;;;1.67;;
42972;SDS011;28610;51.214;6.962;2023-07-20T03:02:47;1.30;;;1.30;;
42972;SDS011;28610;51.214;6.962;2023-07-20T03:05:40;1.50;;;1.50;;
42972;SDS011;28610;51.214;6.962;2023-07-20T03:08:26;1.40;;;1.40;;
42972;SDS011;28610;51.214;6.962;2023-07-20T03:11:13;1.98;;;1.88;;
42972;SDS011;28610;51.214;6.962;2023-07-20T03:13:58;1.90;;;1.80;;
42972;SDS011;28610;51.214;6.962;2023-07-20T03:16:44;3.55;;;1.77;;
42972;SDS011;28610;51.214;6.962;2023-07-20T03:19:30;6.85;;;2.15;;
42972;SDS011;28610;51.214;6.962;2023-07-20T03:22:15;1.50;;;1.50;;
42972;SDS011;28610;51.214;6.962;2023-07-20T03:25:01;1.52;;;1.52;;
42972;SDS011;28610;51.214;6.962;2023-07-20T03:27:49;1.67;;;1.67;;
42972;SDS011;28610;51.214;6.962;2023-07-20T03:30:35;1.70;;;1.60;;
42972;SDS011;28610;51.214;6.962;2023-07-20T03:33:21;1.20;;;1.20;;
42972;SDS011;28610;51.214;6.962;2023-07-20T03:36:07;2.22;;;2.13;;
42972;SDS011;28610;51.214;6.962;2023-07-20T03:38:53;1.60;;;1.60;;
42972;SDS011;28610;51.214;6.962;2023-07-20T03:41:39;5.05;;;1.60;;
42972;SDS011;28610;51.214;6.962;2023-07-20T03:44:26;1.50;;;1.50;;
42972;SDS011;28610;51.214;6.962;2023-07-20T03:47:13;1.88;;;1.70;;
42972;SDS011;28610;51.214;6.962;2023-07-20T03:49:58;1.73;;;1.63;;
42972;SDS011;28610;51.214;6.962;2023-07-20T03:52:44;1.40;;;1.40;;
42972;SDS011;28610;51.214;6.962;2023-07-20T03:55:30;1.75;;;1.65;;
42972;SDS011;28610;51.214;6.962;2023-07-20T03:58:16;1.50;;;1.50;;
42972;SDS011;28610;51.214;6.962;2023-07-20T04:01:04;1.50;;;1.50;;
42972;SDS011;28610;51.214;6.962;2023-07-20T04:03:50;1.17;;;1.17;;
42972;SDS011;28610;51.214;6.962;2023-07-20T04:06:36;2.40;;;2.20;;
42972;SDS011;28610;51.214;6.962;2023-07-20T04:09:23;1.40;;;1.40;;
42972;SDS011;28610;51.214;6.962;2023-07-20T04:12:08;2.20;;;2.05;;
42972;SDS011;28610;51.214;6.962;2023-07-20T04:14:54;1.50;;;1.50;;
42972;SDS011;28610;51.214;6.962;2023-07-20T04:17:41;2.08;;;1.90;;
42972;SDS011;28610;51.214;6.962;2023-07-20T04:20:27;1.90;;;1.80;;
42972;SDS011;28610;51.214;6.962;2023-07-20T04:23:12;1.60;;;1.60;;
42972;SDS011;28610;51.214;6.962;2023-07-20T04:25:58;1.98;;;1.88;;
42972;SDS011;28610;51.214;6.962;2023-07-20T04:28:43;2.05;;;1.83;;
42972;SDS011;28610;51.214;6.962;2023-07-20T04:31:29;1.90;;;1.80;;
42972;SDS011;28610;51.214;6.962;2023-07-20T04:34:18;1.58;;;1.58;;
42972;SDS011;28610;51.214;6.962;2023-07-20T04:37:04;1.95;;;1.85;;
42972;SDS011;28610;51.214;6.962;2023-07-20T04:39:49;1.88;;;1.77;;
42972;SDS011;28610;51.214;6.962;2023-07-20T04:42:35;4.63;;;2.15;;
42972;SDS011;28610;51.214;6.962;2023-07-20T04:45:21;1.75;;;1.75;;
42972;SDS011;28610;51.214;6.962;2023-07-20T04:48:09;1.70;;;1.70;;
42972;SDS011;28610;51.214;6.962;2023-07-20T04:50:56;1.75;;;1.73;;
42972;SDS011;28610;51.214;6.962;2023-07-20T04:53:42;1.90;;;1.80;;
42972;SDS011;28610;51.214;6.962;2023-07-20T04:56:28;1.70;;;1.70;;
42972;SDS011;28610;51.214;6.962;2023-07-20T04:59:13;2.45;;;2.35;;
42972;SDS011;28610;51.214;6.962;2023-07-20T05:01:59;2.30;;;2.20;;
42972;SDS011;28610;51.214;6.962;2023-07-20T05:04:45;2.35;;;2.15;;
42972;SDS011;28610;51.214;6.962;2023-07-20T05:07:32;1.40;;;1.40;;
42972;SDS011;28610;51.214;6.962;2023-07-20T05:10:18;4.20;;;2.38;;
42972;SDS011;28610;51.214;6.962;2023-07-20T05:13:04;2.65;;;2.45;;
42972;SDS011;28610;51.214;6.962;2023-07-20T05:15:51;2.13;;;2.03;;
42972;SDS011;28610;51.214;6.962;2023-07-20T05:18:37;2.00;;;1.90;;
42972;SDS011;28610;51.214;6.962;2023-07-20T05:21:22;2.72;;;2.53;;
42972;SDS011;28610;51.214;6.962;2023-07-20T05:24:09;2.15;;;2.08;;
42972;SDS011;28610;51.214;6.962;2023-07-20T05:26:55;2.83;;;2.63;;
42972;SDS011;28610;51.214;6.962;2023-07-20T05:29:43;2.97;;;2.58;;
42972;SDS011;28610;51.214;6.962;2023-07-20T05:32:28;2.30;;;2.10;;
42972;SDS011;28610;51.214;6.962;2023-07-20T05:35:14;2.40;;;2.28;;
42972;SDS011;28610;51.214;6.962;2023-07-20T05:38:01;3.33;;;2.33;;
42972;SDS011;28610;51.214;6.962;2023-07-20T05:40:49;1.42;;;1.42;;
42972;SDS011;28610;51.214;6.962;2023-07-20T05:43:35;1.50;;;1.50;;
42972;SDS011;28610;51.214;6.962;2023-07-20T05:46:20;1.75;;;1.73;;
42972;SDS011;28610;51.214;6.962;2023-07-20T05:49:07;1.80;;;1.73;;
42972;SDS011;28610;51.214;6.962;2023-07-20T05:51:53;4.35;;;2.13;;
42972;SDS011;28610;51.214;6.962;2023-07-20T05:54:39;2.00;;;1.90;;
42972;SDS011;28610;51.214;6.962;2023-07-20T05:57:26;2.35;;;2.25;;
42972;SDS011;28610;51.214;6.962;2023-07-20T06:00:12;2.17;;;2.08;;
42972;SDS011;28610;51.214;6.962;2023-07-20T06:02:58;2.75;;;2.55;;
42972;SDS011;28610;51.214;6.962;2023-07-20T06:05:43;2.70;;;2.35;;
42972;SDS011;28610;51.214;6.962;2023-07-20T06:08:29;3.25;;;2.90;;
42972;SDS011;28610;51.214;6.962;2023-07-20T06:11:15;2.88;;;2.63;;
42972;SDS011;28610;51.214;6.962;2023-07-20T06:14:02;2.25;;;2.15;;
42972;SDS011;28610;51.214;6.962;2023-07-20T06:16:48;2.70;;;2.50;;
42972;SDS011;28610;51.214;6.962;2023-07-20T06:19:33;1.73;;;1.73;;
42972;SDS011;28610;51.214;6.962;2023-07-20T06:22:19;1.73;;;1.63;;
42972;SDS011;28610;51.214;6.962;2023-07-20T06:25:05;2.17;;;2.08;;
42972;SDS011;28610;51.214;6.962;2023-07-20T06:27:51;2.55;;;2.45;;
42972;SDS011;28610;51.214;6.962;2023-07-20T06:30:38;1.90;;;1.80;;
42972;SDS011;28610;51.214;6.962;2023-07-20T06:33:24;1.88;;;1.77;;
42972;SDS011;28610;51.214;6.962;2023-07-20T06:36:10;2.15;;;2.05;;
42972;SDS011;28610;51.214;6.962;2023-07-20T06:38:55;3.05;;;2.80;;
42972;SDS011;28610;51.214;6.962;2023-07-20T06:41:41;3.03;;;2.80;;
42972;SDS011;28610;51.214;6.962;2023-07-20T06:44:27;3.20;;;2.85;;
42972;SDS011;28610;51.214;6.962;2023-07-20T06:47:14;2.92;;;2.72;;
42972;SDS011;28610;51.214;6.962;2023-07-20T06:49:59;2.65;;;2.50;;
42972;SDS011;28610;51.214;6.962;2023-07-20T06:52:45;4.80;;;3.13;;
42972;SDS011;28610;51.214;6.962;2023-07-20T06:55:32;2.80;;;2.60;;
42972;SDS011;28610;51.214;6.962;2023-07-20T06:58:17;2.58;;;2.42;;
42972;SDS011;28610;51.214;6.962;2023-07-20T07:01:05;2.72;;;2.53;;
42972;SDS011;28610;51.214;6.962;2023-07-20T07:03:52;1.50;;;1.50;;
42972;SDS011;28610;51.214;6.962;2023-07-20T07:06:38;1.50;;;1.50;;
42972;SDS011;28610;51.214;6.962;2023-07-20T07:09:24;1.73;;;1.73;;
42972;SDS011;28610;51.214;6.962;2023-07-20T07:12:09;1.77;;;1.67;;
42972;SDS011;28610;51.214;6.962;2023-07-20T07:14:55;2.17;;;1.75;;
42972;SDS011;28610;51.214;6.962;2023-07-20T07:17:40;2.22;;;2.05;;
42972;SDS011;28610;51.214;6.962;2023-07-20T07:20:28;1.48;;;1.48;;
42972;SDS011;28610;51.214;6.962;2023-07-20T07:23:14;1.80;;;1.70;;
42972;SDS011;28610;51.214;6.962;2023-07-20T07:25:59;1.30;;;1.30;;
42972;SDS011;28610;51.214;6.962;2023-07-20T07:28:45;1.17;;;1.17;;
42972;SDS011;28610;51.214;6.962;2023-07-20T07:31:33;1.38;;;1.38;;
42972;SDS011;28610;51.214;6.962;2023-07-20T07:34:19;1.50;;;1.50;;
42972;SDS011;28610;51.214;6.962;2023-07-20T07:37:06;2.00;;;1.90;;
42972;SDS011;28610;51.214;6.962;2023-07-20T07:39:52;1.65;;;1.60;;
42972;SDS011;28610;51.214;6.962;2023-07-20T07:42:38;1.75;;;1.65;;
42972;SDS011;28610;51.214;6.962;2023-07-20T07:45:23;1.45;;;1.45;;
42972;SDS011;28610;51.214;6.962;2023-07-20T07:48:09;1.90;;;1.83;;
42972;SDS011;28610;51.214;6.962;2023-07-20T07:50:56;1.88;;;1.75;;
42972;SDS011;28610;51.214;6.962;2023-07-20T07:53:43;2.03;;;1.90;;
42972;SDS011;28610;51.214;6.962;2023-07-20T07:56:28;1.92;;;1.80;;
42972;SDS011;28610;51.214;6.962;2023-07-20T07:59:14;1.40;;;1.40;;
42972;SDS011;28610;51.214;6.962;2023-07-20T08:02:00;6.88;;;2.40;;
42972;SDS011;28610;51.214;6.962;2023-07-20T08:04:46;1.65;;;1.60;;
42972;SDS011;28610;51.214;6.962;2023-07-20T08:07:31;1.70;;;1.60;;
42972;SDS011;28610;51.214;6.962;2023-07-20T08:10:18;1.17;;;1.17;;
42972;SDS011;28610;51.214;6.962;2023-07-20T08:13:04;1.20;;;1.20;;
42972;SDS011;28610;51.214;6.962;2023-07-20T08:15:50;1.38;;;1.38;;
42972;SDS011;28610;51.214;6.962;2023-07-20T08:18:36;1.33;;;1.33;;
42972;SDS011;28610;51.214;6.962;2023-07-20T08:21:21;1.08;;;1.08;;
42972;SDS011;28610;51.214;6.962;2023-07-20T08:24:07;1.05;;;1.05;;
42972;SDS011;28610;51.214;6.962;2023-07-20T08:26:54;1.52;;;1.50;;
42972;SDS011;28610;51.214;6.962;2023-07-20T08:29:40;1.38;;;1.38;;
42972;SDS011;28610;51.214;6.962;2023-07-20T08:32:25;1.10;;;1.10;;
42972;SDS011;28610;51.214;6.962;2023-07-20T08:35:11;1.30;;;1.30;;
42972;SDS011;28610;51.214;6.962;2023-07-20T08:37:58;0.75;;;0.75;;
42972;SDS011;28610;51.214;6.962;2023-07-20T08:40:45;1.30;;;1.30;;
42972;SDS011;28610;51.214;6.962;2023-07-20T08:43:32;0.90;;;0.90;;
42972;SDS011;28610;51.214;6.962;2023-07-20T08:46:18;1.05;;;1.05;;
42972;SDS011;28610;51.214;6.962;2023-07-20T08:49:04;0.77;;;0.77;;
42972;SDS011;28610;51.214;6.962;2023-07-20T08:51:50;1.00;;;1.00;;
42972;SDS011;28610;51.214;6.962;2023-07-20T08:54:37;0.90;;;0.90;;
42972;SDS011;28610;51.214;6.962;2023-07-20T08:57:22;1.15;;;1.15;;
42972;SDS011;28610;51.214;6.962;2023-07-20T09:00:10;1.73;;;1.60;;
42972;SDS011;28610;51.214;6.962;2023-07-20T09:02:57;0.93;;;0.93;;
42972;SDS011;28610;51.214;6.962;2023-07-20T09:05:44;1.15;;;1.15;;
42972;SDS011;28610;51.214;6.962;2023-07-20T09:08:29;0.90;;;0.90;;
42972;SDS011;28610;51.214;6.962;2023-07-20T09:11:15;0.77;;;0.77;;
42972;SDS011;28610;51.214;6.962;2023-07-20T09:14:04;0.73;;;0.73;;
42972;SDS011;28610;51.214;6.962;2023-07-20T09:16:53;0.85;;;0.85;;
42972;SDS011;28610;51.214;6.962;2023-07-20T09:19:45;0.85;;;0.85;;
42972;SDS011;28610;51.214;6.962;2023-07-20T09:22:31;1.25;;;1.25;;
42972;SDS011;28610;51.214;6.962;2023-07-20T09:25:17;1.10;;;1.10;;
42972;SDS011;28610;51.214;6.962;2023-07-20T09:28:03;0.90;;;0.90;;
42972;SDS011;28610;51.214;6.962;2023-07-20T09:30:49;1.00;;;1.00;;
42972;SDS011;28610;51.214;6.962;2023-07-20T09:33:36;1.10;;;1.05;;
42972;SDS011;28610;51.214;6.962;2023-07-20T09:36:26;1.20;;;1.08;;
42972;SDS011;28610;51.214;6.962;2023-07-20T09:39:12;0.90;;;0.90;;
42972;SDS011;28610;51.214;6.962;2023-07-20T09:41:59;0.88;;;0.88;;
42972;SDS011;28610;51.214;6.962;2023-07-20T09:44:45;0.93;;;0.93;;
42972;SDS011;28610;51.214;6.962;2023-07-20T09:47:31;0.95;;;0.95;;
42972;SDS011;28610;51.214;6.962;2023-07-20T09:50:22;0.93;;;0.93;;
42972;SDS011;28610;51.214;6.962;2023-07-20T09:53:09;1.05;;;1.00;;
42972;SDS011;28610;51.214;6.962;2023-07-20T09:55:57;0.60;;;0.60;;
42972;SDS011;28610;51.214;6.962;2023-07-20T09:58:44;0.90;;;0.90;;
42972;SDS011;28610;51.214;6.962;2023-07-20T10:01:31;0.75;;;0.75;;
42972;SDS011;28610;51.214;6.962;2023-07-20T10:04:18;0.75;;;0.75;;
42972;SDS011;28610;51.214;6.962;2023-07-20T10:07:06;1.33;;;1.23;;
42972;SDS011;28610;51.214;6.962;2023-07-20T10:09:54;0.77;;;0.77;;
42972;SDS011;28610;51.214;6.962;2023-07-20T10:12:42;0.70;;;0.70;;
42972;SDS011;28610;51.214;6.962;2023-07-20T10:15:29;0.70;;;0.70;;
42972;SDS011;28610;51.214;6.962;2023-07-20T10:18:21;0.80;;;0.80;;
42972;SDS011;28610;51.214;6.962;2023-07-20T10:21:08;0.50;;;0.50;;
42972;SDS011;28610;51.214;6.962;2023-07-20T10:23:57;0.70;;;0.70;;
42972;SDS011;28610;51.214;6.962;2023-07-20T10:26:43;0.80;;;0.80;;
42972;SDS011;28610;51.214;6.962;2023-07-20T10:29:28;0.45;;;0.45;;
42972;SDS011;28610;51.214;6.962;2023-07-20T10:32:15;0.52;;;0.52;;
42972;SDS011;28610;51.214;6.962;2023-07-20T10:35:01;0.60;;;0.60;;
42972;SDS011;28610;51.214;6.962;2023-07-20T10:37:59;0.63;;;0.63;;
42972;SDS011;28610;51.214;6.962;2023-07-20T10:40:54;0.90;;;0.90;;
42972;SDS011;28610;51.214;6.962;2023-07-20T10:43:41;1.00;;;1.00;;
42972;SDS011;28610;51.214;6.962;2023-07-20T10:46:34;1.02;;;1.02;;
42972;SDS011;28610;51.214;6.962;2023-07-20T10:49:20;0.80;;;0.80;;
42972;SDS011;28610;51.214;6.962;2023-07-20T10:52:09;0.93;;;0.93;;
42972;SDS011;28610;51.214;6.962;2023-07-20T10:54:59;0.88;;;0.82;;
42972;SDS011;28610;51.214;6.962;2023-07-20T10:58:09;2.92;;;1.05;;
42972;SDS011;28610;51.214;6.962;2023-07-20T11:00:59;0.55;;;0.55;;
42972;SDS011;28610;51.214;6.962;2023-07-20T11:03:48;0.65;;;0.65;;
42972;SDS011;28610;51.214;6.962;2023-07-20T11:06:35;0.50;;;0.50;;
42972;SDS011;28610;51.214;6.962;2023-07-20T11:09:22;0.82;;;0.82;;
42972;SDS011;28610;51.214;6.962;2023-07-20T11:12:09;0.50;;;0.50;;
42972;SDS011;28610;51.214;6.962;2023-07-20T11:14:57;0.68;;;0.68;;
42972;SDS011;28610;51.214;6.962;2023-07-20T11:17:43;0.77;;;0.77;;
42972;SDS011;28610;51.214;6.962;2023-07-20T11:20:28;0.70;;;0.70;;
42972;SDS011;28610;51.214;6.962;2023-07-20T11:23:15;0.65;;;0.65;;
42972;SDS011;28610;51.214;6.962;2023-07-20T11:26:01;0.73;;;0.73;;
42972;SDS011;28610;51.214;6.962;2023-07-20T11:28:48;0.85;;;0.85;;
42972;SDS011;28610;51.214;6.962;2023-07-20T11:31:37;0.70;;;0.70;;
42972;SDS011;28610;51.214;6.962;2023-07-20T11:34:22;0.70;;;0.70;;
42972;SDS011;28610;51.214;6.962;2023-07-20T11:37:08;0.63;;;0.63;;
42972;SDS011;28610;51.214;6.962;2023-07-20T11:39:55;0.40;;;0.40;;
42972;SDS011;28610;51.214;6.962;2023-07-20T11:42:41;0.70;;;0.70;;
42972;SDS011;28610;51.214;6.962;2023-07-20T11:45:26;0.77;;;0.77;;
42972;SDS011;28610;51.214;6.962;2023-07-20T11:48:17;0.52;;;0.52;;
42972;SDS011;28610;51.214;6.962;2023-07-20T11:51:03;2.85;;;1.30;;
42972;SDS011;28610;51.214;6.962;2023-07-20T11:53:49;0.60;;;0.60;;
42972;SDS011;28610;51.214;6.962;2023-07-20T11:56:34;0.80;;;0.80;;
42972;SDS011;28610;51.214;6.962;2023-07-20T11:59:20;0.80;;;0.80;;
42972;SDS011;28610;51.214;6.962;2023-07-20T12:02:06;0.60;;;0.60;;
42972;SDS011;28610;51.214;6.962;2023-07-20T12:04:54;0.70;;;0.70;;
42972;SDS011;28610;51.214;6.962;2023-07-20T12:07:40;0.60;;;0.60;;
42972;SDS011;28610;51.214;6.962;2023-07-20T12:10:26;0.70;;;0.70;;
42972;SDS011;28610;51.214;6.962;2023-07-20T12:13:12;0.70;;;0.70;;
42972;SDS011;28610;51.214;6.962;2023-07-20T12:15:57;0.60;;;0.60;;
42972;SDS011;28610;51.214;6.962;2023-07-20T12:18:51;0.60;;;0.60;;
42972;SDS011;28610;51.214;6.962;2023-07-20T12:21:45;0.70;;;0.70;;
42972;SDS011;28610;51.214;6.962;2023-07-20T12:24:31;0.70;;;0.70;;
42972;SDS011;28610;51.214;6.962;2023-07-20T12:27:17;0.77;;;0.77;;
42972;SDS011;28610;51.214;6.962;2023-07-20T12:30:03;0.68;;;0.68;;
42972;SDS011;28610;51.214;6.962;2023-07-20T12:32:48;0.57;;;0.57;;
42972;SDS011;28610;51.214;6.962;2023-07-20T12:35:34;0.65;;;0.65;;
42972;SDS011;28610;51.214;6.962;2023-07-20T12:38:21;0.65;;;0.65;;
42972;SDS011;28610;51.214;6.962;2023-07-20T12:41:10;0.70;;;0.70;;
42972;SDS011;28610;51.214;6.962;2023-07-20T12:43:57;0.70;;;0.70;;
42972;SDS011;28610;51.214;6.962;2023-07-20T12:46:43;0.80;;;0.80;;
42972;SDS011;28610;51.214;6.962;2023-07-20T12:49:29;1.02;;;1.02;;
42972;SDS011;28610;51.214;6.962;2023-07-20T12:52:15;0.70;;;0.70;;
42972;SDS011;28610;51.214;6.962;2023-07-20T12:55:02;0.50;;;0.50;;
42972;SDS011;28610;51.214;6.962;2023-07-20T12:57:47;0.55;;;0.55;;
42972;SDS011;28610;51.214;6.962;2023-07-20T13:00:33;0.50;;;0.50;;
42972;SDS011;28610;51.214;6.962;2023-07-20T13:03:19;0.60;;;0.60;;
42972;SDS011;28610;51.214;6.962;2023-07-20T13:06:05;0.80;;;0.80;;
42972;SDS011;28610;51.214;6.962;2023-07-20T13:08:50;0.60;;;0.60;;
42972;SDS011;28610;51.214;6.962;2023-07-20T13:11:40;0.70;;;0.70;;
42972;SDS011;28610;51.214;6.962;2023-07-20T13:14:26;0.70;;;0.70;;
42972;SDS011;28610;51.214;6.962;2023-07-20T13:17:13;0.73;;;0.73;;
42972;SDS011;28610;51.214;6.962;2023-07-20T13:19:58;0.45;;;0.45;;
42972;SDS011;28610;51.214;6.962;2023-07-20T13:22:44;0.73;;;0.73;;
42972;SDS011;28610;51.214;6.962;2023-07-20T13:25:31;0.60;;;0.60;;
42972;SDS011;28610;51.214;6.962;2023-07-20T13:28:18;0.60;;;0.60;;
42972;SDS011;28610;51.214;6.962;2023-07-20T13:31:03;0.60;;;0.60;;
42972;SDS011;28610;51.214;6.962;2023-07-20T13:33:49;0.80;;;0.80;;
42972;SDS011;28610;51.214;6.962;2023-07-20T13:36:35;0.65;;;0.65;;
42972;SDS011;28610;51.214;6.962;2023-07-20T13:39:21;0.60;;;0.60;;
42972;SDS011;28610;51.214;6.962;2023-07-20T13:42:07;0.75;;;0.75;;
42972;SDS011;28610;51.214;6.962;2023-07-20T13:44:55;0.63;;;0.63;;
42972;SDS011;28610;51.214;6.962;2023-07-20T13:47:41;1.00;;;1.00;;
42972;SDS011;28610;51.214;6.962;2023-07-20T13:50:27;0.60;;;0.60;;
42972;SDS011;28610;51.214;6.962;2023-07-20T13:53:12;0.80;;;0.80;;
42972;SDS011;28610;51.214;6.962;2023-07-20T13:55:59;0.80;;;0.80;;
42972;SDS011;28610;51.214;6.962;2023-07-20T13:58:48;0.65;;;0.65;;
42972;SDS011;28610;51.214;6.962;2023-07-20T14:01:35;0.75;;;0.75;;
42972;SDS011;28610;51.214;6.962;2023-07-20T14:04:20;0.50;;;0.50;;
42972;SDS011;28610;51.214;6.962;2023-07-20T14:07:06;0.93;;;0.93;;
42972;SDS011;28610;51.214;6.962;2023-07-20T14:09:51;0.75;;;0.75;;
42972;SDS011;28610;51.214;6.962;2023-07-20T14:12:37;0.65;;;0.65;;
42972;SDS011;28610;51.214;6.962;2023-07-20T14:15:23;0.60;;;0.60;;
42972;SDS011;28610;51.214;6.962;2023-07-20T14:18:10;1.27;;;1.13;;
42972;SDS011;28610;51.214;6.962;2023-07-20T14:20:56;5.68;;;1.27;;
42972;SDS011;28610;51.214;6.962;2023-07-20T14:23:41;0.95;;;0.85;;
42972;SDS011;28610;51.214;6.962;2023-07-20T14:26:27;0.70;;;0.70;;
42972;SDS011;28610;51.214;6.962;2023-07-20T14:29:13;0.95;;;0.95;;
42972;SDS011;28610;51.214;6.962;2023-07-20T14:31:58;0.60;;;0.60;;
42972;SDS011;28610;51.214;6.962;2023-07-20T14:34:46;0.80;;;0.80;;
42972;SDS011;28610;51.214;6.962;2023-07-20T14:37:32;0.60;;;0.60;;
42972;SDS011;28610;51.214;6.962;2023-07-20T14:40:18;1.00;;;1.00;;
42972;SDS011;28610;51.214;6.962;2023-07-20T14:43:04;0.80;;;0.80;;
42972;SDS011;28610;51.214;6.962;2023-07-20T14:45:49;1.00;;;1.00;;
42972;SDS011;28610;51.214;6.962;2023-07-20T14:48:35;0.77;;;0.77;;
42972;SDS011;28610;51.214;6.962;2023-07-20T14:51:22;0.85;;;0.85;;
42972;SDS011;28610;51.214;6.962;2023-07-20T14:54:08;0.57;;;0.57;;
42972;SDS011;28610;51.214;6.962;2023-07-20T14:56:54;0.60;;;0.60;;
42972;SDS011;28610;51.214;6.962;2023-07-20T14:59:40;0.70;;;0.70;;
42972;SDS011;28610;51.214;6.962;2023-07-20T15:02:25;0.60;;;0.60;;
42972;SDS011;28610;51.214;6.962;2023-07-20T15:05:11;0.80;;;0.80;;
42972;SDS011;28610;51.214;6.962;2023-07-20T15:07:58;0.68;;;0.68;;
42972;SDS011;28610;51.214;6.962;2023-07-20T15:10:43;0.80;;;0.80;;
42972;SDS011;28610;51.214;6.962;2023-07-20T15:13:30;0.82;;;0.82;;
42972;SDS011;28610;51.214;6.962;2023-07-20T15:16:16;0.98;;;0.98;;
42972;SDS011;28610;51.214;6.962;2023-07-20T15:19:01;0.70;;;0.70;;
42972;SDS011;28610;51.214;6.962;2023-07-20T15:21:47;0.73;;;0.73;;
42972;SDS011;28610;51.214;6.962;2023-07-20T15:24:35;0.70;;;0.70;;
42972;SDS011;28610;51.214;6.962;2023-07-20T15:27:21;0.75;;;0.75;;
42972;SDS011;28610;51.214;6.962;2023-07-20T15:30:07;0.80;;;0.80;;
42972;SDS011;28610;51.214;6.962;2023-07-20T15:32:52;0.70;;;0.70;;
42972;SDS011;28610;51.214;6.962;2023-07-20T15:35:39;0.80;;;0.80;;
42972;SDS011;28610;51.214;6.962;2023-07-20T15:38:24;0.90;;;0.90;;
42972;SDS011;28610;51.214;6.962;2023-07-20T15:41:11;0.82;;;0.82;;
42972;SDS011;28610;51.214;6.962;2023-07-20T15:43:58;0.70;;;0.70;;
42972;SDS011;28610;51.214;6.962;2023-07-20T15:46:45;0.65;;;0.65;;
42972;SDS011;28610;51.214;6.962;2023-07-20T15:49:31;1.13;;;0.98;;
42972;SDS011;28610;51.214;6.962;2023-07-20T15:52:17;0.70;;;0.70;;
42972;SDS011;28610;51.214;6.962;2023-07-20T15:55:03;0.60;;;0.60;;
42972;SDS011;28610;51.214;6.962;2023-07-20T15:57:50;0.60;;;0.60;;
42972;SDS011;28610;51.214;6.962;2023-07-20T16:00:35;0.80;;;0.80;;
42972;SDS011;28610;51.214;6.962;2023-07-20T16:03:21;0.70;;;0.70;;
42972;SDS011;28610;51.214;6.962;2023-07-20T16:06:08;0.63;;;0.63;;
42972;SDS011;28610;51.214;6.962;2023-07-20T16:08:54;0.85;;;0.85;;
42972;SDS011;28610;51.214;6.962;2023-07-20T16:11:39;0.60;;;0.60;;
42972;SDS011;28610;51.214;6.962;2023-07-20T16:14:26;0.75;;;0.75;;
42972;SDS011;28610;51.214;6.962;2023-07-20T16:17:12;0.90;;;0.90;;
42972;SDS011;28610;51.214;6.962;2023-07-20T16:19:58;0.90;;;0.90;;
42972;SDS011;28610;51.214;6.962;2023-07-20T16:22:43;0.60;;;0.60;;
42972;SDS011;28610;51.214;6.962;2023-07-20T16:25:29;0.70;;;0.70;;
42972;SDS011;28610;51.214;6.962;2023-07-20T16:28:15;0.70;;;0.70;;
42972;SDS011;28610;51.214;6.962;2023-07-20T16:31:07;0.80;;;0.80;;
42972;SDS011;28610;51.214;6.962;2023-07-20T16:33:53;0.70;;;0.70;;
42972;SDS011;28610;51.214;6.962;2023-07-20T16:36:39;0.90;;;0.90;;
42972;SDS011;28610;51.214;6.962;2023-07-20T16:39:25;0.60;;;0.60;;
42972;SDS011;28610;51.214;6.962;2023-07-20T16:42:11;0.70;;;0.70;;
42972;SDS011;28610;51.214;6.962;2023-07-20T16:44:58;0.70;;;0.70;;